Time;durP1;ratioP1;P1;durP2;ratioP2;P2;SDS_P1;SDS_P2;PMS_P1;PMS_P2;Temp;Humidity;BMP_temperature;BMP_pressure;BME280_temperature;BME280_humidity;BME280_pressure;Samples;Min_cycle;Max_cycle;Signal;HPM_P1;HPM_P2
2021/11/19 00:01:28;;;;;;;33.63;16.98;;;;;;;10.61;100.00;102080.34;10138620;28;20060;-70
2021/11/19 00:06:26;;;;;;;34.13;17.67;;;;;;;10.65;100.00;102081.38;10159841;28;20502;-69
2021/11/19 00:11:28;;;;;;;33.13;15.05;;;;;;;10.68;100.00;102081.66;10168020;28;20056;-69
2021/11/19 00:16:26;;;;;;;31.20;15.15;;;;;;;10.71;100.00;102075.59;10163200;28;20500;-69
2021/11/19 00:21:25;;;;;;;37.63;15.32;;;;;;;10.76;100.00;102087.59;10150573;28;20054;-69
2021/11/19 00:26:23;;;;;;;29.85;12.80;;;;;;;10.79;100.00;102097.97;10137578;28;20128;-69
2021/11/19 00:31:20;;;;;;;27.55;14.10;;;;;;;10.81;100.00;102102.06;10144533;28;20116;-69
2021/11/19 00:36:19;;;;;;;29.40;12.88;;;;;;;10.84;100.00;102096.03;10149779;28;20068;-69
2021/11/19 00:41:17;;;;;;;26.40;13.63;;;;;;;10.88;100.00;102096.25;10165143;28;20100;-69
2021/11/19 00:46:14;;;;;;;31.48;14.43;;;;;;;10.89;100.00;102092.44;10139413;28;20073;-68
2021/11/19 00:51:33;;;;;;;49.17;16.50;;;;;;;10.91;100.00;102101.19;10156189;28;20500;-69
2021/11/19 00:56:33;;;;;;;28.15;13.48;;;;;;;10.92;100.00;102113.75;10151316;28;20113;-70
2021/11/19 01:01:51;;;;;;;23.92;13.77;;;;;;;10.94;100.00;102117.00;10166263;28;20493;-69
2021/11/19 01:06:48;;;;;;;25.98;11.63;;;;;;;10.94;100.00;102117.00;10163282;28;20078;-69
2021/11/19 01:11:46;;;;;;;28.42;12.70;;;;;;;10.95;100.00;102124.09;10165289;28;20039;-70
2021/11/19 01:17:08;;;;;;;27.50;11.63;;;;;;;10.98;100.00;102119.97;10170279;28;20077;-69
2021/11/19 01:22:12;;;;;;;23.87;10.93;;;;;;;10.99;100.00;102138.88;10147150;28;20041;-70
2021/11/19 01:27:10;;;;;;;20.70;9.88;;;;;;;11.01;100.00;102139.41;10146992;28;20092;-70
2021/11/19 01:32:12;;;;;;;23.25;10.15;;;;;;;11.01;100.00;102125.72;10145470;28;20510;-70
2021/11/19 01:37:10;;;;;;;27.85;8.60;;;;;;;11.02;100.00;102118.31;10149747;28;20053;-69
2021/11/19 01:42:15;;;;;;;22.20;8.23;;;;;;;11.02;100.00;102118.31;10154388;28;20046;-69
2021/11/19 01:47:12;;;;;;;16.98;7.18;;;;;;;11.02;100.00;102102.69;10145671;28;20102;-69
2021/11/19 01:52:23;;;;;;;22.15;7.43;;;;;;;11.04;100.00;102121.59;10161845;28;20046;-69
2021/11/19 01:57:37;;;;;;;21.55;7.85;;;;;;;11.03;100.00;102115.28;10144893;28;20531;-69
2021/11/19 02:02:38;;;;;;;21.10;7.35;;;;;;;11.06;100.00;102103.75;10149986;28;20502;-69
2021/11/19 02:07:44;;;;;;;16.83;7.00;;;;;;;11.06;100.00;102125.66;10173471;28;20042;-69
2021/11/19 02:13:18;;;;;;;18.67;7.55;;;;;;;11.07;100.00;102127.31;10154442;28;20100;-70
2021/11/19 02:18:31;;;;;;;17.97;8.33;;;;;;;11.06;100.00;102113.91;10163397;28;20045;-69
2021/11/19 02:23:36;;;;;;;;;;;;;;;11.10;100.00;102121.25;10165156;28;20042;-71
2021/11/19 02:28:34;;;;;;;;;;;;;;;11.06;100.00;102125.66;10153247;28;19980;-69
2021/11/19 02:33:31;;;;;;;18.45;7.65;;;;;;;11.08;100.00;102123.47;10144665;28;19961;-71
2021/11/19 02:38:38;;;;;;;21.70;9.35;;;;;;;11.09;100.00;102125.09;10152921;28;20050;-69
2021/11/19 02:43:43;;;;;;;27.63;9.48;;;;;;;11.13;100.00;102125.34;10141926;28;20066;-70
2021/11/19 02:48:39;;;;;;;21.30;7.78;;;;;;;11.15;100.00;102134.88;10149137;28;20097;-69
2021/11/19 02:53:36;;;;;;;17.98;7.43;;;;;;;11.14;100.00;102138.75;10143941;28;20039;-69
2021/11/19 02:58:38;;;;;;;17.80;7.05;;;;;;;11.15;100.00;102129.41;10139315;28;20394;-70
2021/11/19 03:03:37;;;;;;;18.75;7.30;;;;;;;11.18;100.00;102138.16;10132939;28;20463;-69
2021/11/19 03:08:34;;;;;;;27.88;7.22;;;;;;;11.15;100.00;102123.94;10155635;28;20070;-69
2021/11/19 03:13:34;;;;;;;17.33;6.55;;;;;;;11.18;100.00;102127.22;10152895;28;20130;-68
2021/11/19 03:18:30;;;;;;;23.08;7.50;;;;;;;11.18;100.00;102138.16;10155372;28;20080;-69
2021/11/19 03:23:29;;;;;;;23.13;7.90;;;;;;;11.16;100.00;102131.06;10140293;28;20069;-69
2021/11/19 03:28:27;;;;;;;25.52;8.52;;;;;;;11.14;100.00;102138.75;10162617;28;20470;-69
2021/11/19 03:33:26;;;;;;;21.05;7.85;;;;;;;11.15;100.00;102150.50;10156132;28;20104;-68
2021/11/19 03:38:25;;;;;;;20.13;7.53;;;;;;;11.15;100.00;102140.38;10155405;28;20568;-69
2021/11/19 03:43:42;;;;;;;19.20;7.13;;;;;;;11.16;100.00;102130.22;10144302;28;20096;-69
2021/11/19 03:48:40;;;;;;;19.15;7.95;;;;;;;11.16;100.00;102139.28;10135403;28;20138;-68
2021/11/19 03:53:37;;;;;;;16.42;7.22;;;;;;;11.15;100.00;102140.38;10155022;28;20039;-69
2021/11/19 03:58:36;;;;;;;21.52;7.68;;;;;;;11.17;100.00;102142.81;10152037;28;20113;-68
2021/11/19 04:03:33;;;;;;;20.13;7.38;;;;;;;11.18;100.00;102138.16;10154678;28;20093;-68
2021/11/19 04:08:30;;;;;;;15.15;7.13;;;;;;;11.19;100.00;102145.28;10153898;28;20043;-69
2021/11/19 04:13:27;;;;;;;20.30;6.32;;;;;;;11.16;100.00;102136.53;10157921;28;20051;-69
2021/11/19 04:18:24;;;;;;;24.45;7.32;;;;;;;11.18;100.00;102149.13;10162295;28;20086;-70
2021/11/19 04:23:22;;;;;;;19.52;5.82;;;;;;;11.19;100.00;102161.72;10172865;28;20101;-69
2021/11/19 04:28:19;;;;;;;14.88;5.63;;;;;;;11.20;100.00;102153.19;10169294;28;20053;-69
2021/11/19 04:33:18;;;;;;;25.58;7.88;;;;;;;11.21;100.00;102159.47;10126492;28;20097;-69
2021/11/19 04:38:16;;;;;;;21.08;6.35;;;;;;;11.21;100.00;102167.69;10129006;28;20046;-68
2021/11/19 04:43:13;;;;;;;17.48;6.07;;;;;;;11.18;100.00;102182.78;10156149;28;20121;-70
2021/11/19 04:48:10;;;;;;;22.00;6.55;;;;;;;11.20;100.00;102174.28;10130859;28;20045;-67
2021/11/19 04:53:08;;;;;;;14.55;6.20;;;;;;;11.20;100.00;102179.75;10133449;28;20042;-69
2021/11/19 04:58:06;;;;;;;20.10;6.30;;;;;;;11.19;100.00;102178.13;10150078;28;20137;-68
2021/11/19 05:03:05;;;;;;;22.75;6.20;;;;;;;11.20;100.00;102174.28;10146574;28;20046;-69
2021/11/19 05:08:03;;;;;;;18.90;7.07;;;;;;;11.19;100.00;102173.47;10161949;28;20141;-69
2021/11/19 05:13:02;;;;;;;21.35;6.20;;;;;;;11.22;100.00;102172.09;10172552;28;20046;-69
2021/11/19 05:17:59;;;;;;;24.02;7.25;;;;;;;11.21;100.00;102175.91;10152993;28;20054;-70
2021/11/19 05:22:55;;;;;;;17.33;6.35;;;;;;;11.19;100.00;102164.44;10165302;28;20512;-69
2021/11/19 05:27:52;;;;;;;21.73;5.80;;;;;;;11.18;100.00;102165.53;10151204;28;20485;-71
2021/11/19 05:32:49;;;;;;;18.80;5.47;;;;;;;11.16;100.00;102166.66;10140118;28;20138;-70
2021/11/19 05:37:47;;;;;;;18.42;6.68;;;;;;;11.19;100.00;102154.31;10137499;28;20086;-68
2021/11/19 05:42:45;;;;;;;23.30;7.03;;;;;;;11.20;100.00;102179.75;10136958;28;20424;-67
2021/11/19 05:47:42;;;;;;;22.77;6.18;;;;;;;11.19;100.00;102167.19;10129407;28;20105;-68
2021/11/19 05:52:38;;;;;;;24.95;6.32;;;;;;;11.15;100.00;102165.00;10127337;28;20097;-67
2021/11/19 05:57:35;;;;;;;23.17;7.55;;;;;;;11.16;100.00;102169.38;10129987;28;20541;-68
2021/11/19 06:02:32;;;;;;;24.10;7.28;;;;;;;11.16;100.00;102161.19;10126859;28;20104;-68
2021/11/19 06:07:28;;;;;;;22.95;8.00;;;;;;;11.14;100.00;102170.78;10118647;28;20105;-67
2021/11/19 06:12:34;;;;;;;25.27;7.95;;;;;;;11.13;100.00;102152.72;10124279;28;20128;-69
2021/11/19 06:17:40;;;;;;;22.45;7.07;;;;;;;11.14;100.00;102177.06;10125977;28;20405;-69
2021/11/19 06:22:39;;;;;;;23.88;7.40;;;;;;;11.16;100.00;102188.56;10131024;28;20083;-69
2021/11/19 06:27:37;;;;;;;22.80;6.78;;;;;;;11.18;100.00;102181.97;10133427;28;20054;-69
2021/11/19 06:32:34;;;;;;;25.20;6.65;;;;;;;11.18;100.00;102198.38;10157840;28;20045;-69
2021/11/19 06:37:30;;;;;;;25.60;7.63;;;;;;;11.17;100.00;102192.09;10143941;28;20042;-69
2021/11/19 06:42:27;;;;;;;23.58;7.10;;;;;;;11.18;100.00;102192.91;10145002;28;20618;-69
2021/11/19 06:47:23;;;;;;;28.40;7.43;;;;;;;11.19;100.00;102200.03;10140438;28;20401;-69
2021/11/19 06:52:20;;;;;;;28.23;8.10;;;;;;;11.21;100.00;102192.34;10141851;28;20077;-69
2021/11/19 06:57:19;;;;;;;25.80;8.15;;;;;;;11.22;100.00;102188.50;10142434;28;20077;-69
2021/11/19 07:02:16;;;;;;;25.17;8.75;;;;;;;11.19;100.00;102194.56;10130438;28;20362;-69
2021/11/19 07:07:14;;;;;;;18.45;6.97;;;;;;;11.21;100.00;102198.66;10126610;28;20133;-68
2021/11/19 07:12:13;;;;;;;25.70;6.88;;;;;;;11.24;100.00;102202.72;10132072;28;20057;-69
2021/11/19 07:17:10;;;;;;;23.33;6.55;;;;;;;11.24;100.00;102209.00;10120040;28;20051;-69
2021/11/19 07:22:07;;;;;;;19.20;6.80;;;;;;;11.29;100.00;102205.41;10122621;28;20045;-69
2021/11/19 07:27:04;;;;;;;20.00;5.90;;;;;;;11.28;100.00;102215.56;10121551;28;20054;-69
2021/11/19 07:32:02;;;;;;;25.13;5.85;;;;;;;11.31;100.00;102220.47;10148566;28;20077;-69
2021/11/19 07:36:59;;;;;;;17.52;5.45;;;;;;;11.33;100.00;102220.19;10148702;28;20093;-69
2021/11/19 07:41:55;;;;;;;29.05;6.55;;;;;;;11.36;100.00;102222.34;10152418;28;20057;-70
2021/11/19 07:46:52;;;;;;;22.48;5.50;;;;;;;11.39;100.00;102232.72;10151077;28;20560;-69
2021/11/19 07:51:51;;;;;;;20.65;5.70;;;;;;;11.40;100.00;102220.66;10156089;28;20078;-69
2021/11/19 07:56:48;;;;;;;25.30;5.00;;;;;;;11.38;100.00;102222.88;10133577;28;20504;-69
2021/11/19 08:01:45;;;;;;;18.77;5.07;;;;;;;11.44;100.00;102229.97;10153780;28;20066;-69
2021/11/19 08:06:43;;;;;;;22.58;4.88;;;;;;;11.41;100.00;102230.50;10154698;28;20057;-69
2021/11/19 08:11:40;;;;;;;15.80;4.97;;;;;;;11.48;100.00;102222.78;10133885;28;20043;-70
2021/11/19 08:16:46;;;;;;;16.98;4.25;;;;;;;11.48;100.00;102231.00;10144805;28;20050;-70
2021/11/19 08:21:47;;;;;;;19.33;5.10;;;;;;;11.50;100.00;102245.22;10135826;28;20454;-70
2021/11/19 08:26:49;;;;;;;17.75;5.30;;;;;;;11.50;100.00;102237.00;10130266;28;20523;-69
2021/11/19 08:31:47;;;;;;;18.95;5.30;;;;;;;11.48;100.00;102236.47;10130127;28;20057;-70
2021/11/19 08:36:44;;;;;;;16.30;5.50;;;;;;;11.50;100.00;102242.47;10138758;28;20042;-69
2021/11/19 08:41:41;;;;;;;17.20;5.03;;;;;;;11.55;100.00;102234.22;10147532;28;20066;-69
2021/11/19 08:46:42;;;;;;;16.30;5.57;;;;;;;11.55;100.00;102236.97;10128820;28;20085;-69
2021/11/19 08:51:45;;;;;;;22.17;6.43;;;;;;;11.55;100.00;102252.59;10155278;28;20049;-69
2021/11/19 08:56:45;;;;;;;22.70;5.45;;;;;;;11.54;100.00;102240.81;10136491;28;20042;-69
2021/11/19 09:01:48;;;;;;;19.95;7.47;;;;;;;11.54;100.00;102237.25;10137205;28;20050;-69
2021/11/19 09:06:46;;;;;;;15.07;6.45;;;;;;;11.57;100.00;102245.72;10151305;28;20073;-69
2021/11/19 09:11:44;;;;;;;16.98;5.85;;;;;;;11.58;100.00;102241.88;10147442;28;20515;-69
2021/11/19 09:17:01;;;;;;;17.75;6.13;;;;;;;11.59;100.00;102243.50;10127363;28;20046;-70
2021/11/19 09:22:35;;;;;;;19.65;6.07;;;;;;;11.64;100.00;102255.53;10146821;28;20054;-69
2021/11/19 09:27:34;;;;;;;15.40;5.85;;;;;;;11.61;100.00;102245.16;10114530;28;20121;-69
2021/11/19 09:32:31;;;;;;;15.23;5.40;;;;;;;11.60;100.00;102255.28;10143253;28;20969;-69
2021/11/19 09:37:28;;;;;;;10.45;5.00;;;;;;;11.67;100.00;102249.47;10156199;28;20554;-69
2021/11/19 09:42:42;;;;;;;19.33;6.13;;;;;;;11.68;100.00;102246.44;10170416;28;20061;-70
2021/11/19 09:47:58;;;;;;;17.52;6.20;;;;;;;11.65;100.00;102251.66;10124117;28;20157;-69
2021/11/19 09:53:10;;;;;;;16.58;5.10;;;;;;;11.64;100.00;102258.25;10132389;28;20081;-70
2021/11/19 09:58:28;;;;;;;13.93;4.97;;;;;;;11.61;100.00;102250.63;10122819;28;20038;-70
2021/11/19 10:03:42;;;;;;;17.92;6.80;;;;;;;11.65;100.00;102258.00;10130790;28;20077;-69
2021/11/19 10:08:38;;;;;;;12.93;5.53;;;;;;;11.68;100.00;102267.56;10130438;28;20158;-69
2021/11/19 10:14:00;;;;;;;12.68;5.20;;;;;;;11.68;100.00;102253.84;10128404;28;20050;-70
2021/11/19 10:19:06;;;;;;;12.27;5.38;;;;;;;11.69;100.00;102247.25;10133764;28;20053;-71
2021/11/19 10:24:36;;;;;;;15.10;5.07;;;;;;;11.73;100.00;102248.31;11251002;22;20135;-70
2021/11/19 10:29:42;;;;;;;14.23;5.00;;;;;;;11.74;100.00;102242.56;10185204;28;20132;-70
2021/11/19 10:34:47;;;;;;;17.17;5.18;;;;;;;11.76;100.00;102247.72;10186012;28;20084;-70
2021/11/19 10:39:59;;;;;;;14.93;5.47;;;;;;;11.82;100.00;102246.59;10174582;28;20636;-71
2021/11/19 10:45:25;;;;;;;39.25;5.82;;;;;;;11.88;100.00;102256.44;10181206;28;20108;-70
2021/11/19 10:50:27;;;;;;;14.13;5.30;;;;;;;11.96;100.00;102247.56;10178111;28;20062;-70
2021/11/19 10:56:02;;;;;;;13.50;4.43;;;;;;;11.96;100.00;102255.78;10177639;28;20179;-70
2021/11/19 11:00:59;;;;;;;10.98;4.72;;;;;;;11.92;100.00;102243.78;10186043;28;20077;-69
2021/11/19 11:06:05;;;;;;;12.75;5.18;;;;;;;11.91;100.00;102250.38;10186289;28;20053;-71
2021/11/19 11:11:20;;;;;;;14.00;4.47;;;;;;;11.90;100.00;102242.44;10179566;28;20049;-70
2021/11/19 11:16:16;;;;;;;19.20;5.65;;;;;;;11.94;100.00;102240.75;10184073;28;20076;-68
2021/11/19 11:21:25;;;;;;;16.40;5.13;;;;;;;11.96;100.00;102258.53;10182398;28;20060;-70
2021/11/19 11:26:27;;;;;;;15.48;5.32;;;;;;;11.97;100.00;102242.91;10181794;28;20099;-70
2021/11/19 11:32:01;;;;;;;17.13;4.73;;;;;;;12.05;100.00;102244.22;10180626;28;20044;-71
2021/11/19 11:37:13;;;;;;;12.35;4.90;;;;;;;12.03;100.00;102257.38;10174898;28;20700;-70
2021/11/19 11:42:31;;;;;;;17.90;5.60;;;;;;;12.03;100.00;102246.41;10178082;28;20515;-69
2021/11/19 11:47:30;;;;;;;11.27;3.50;;;;;;;11.95;100.00;102251.44;10179920;28;20133;-70
2021/11/19 11:53:16;;;;;;;17.55;5.30;;;;;;;11.98;100.00;102261.81;10176547;28;20054;-70
2021/11/19 11:58:35;;;;;;;21.35;6.03;;;;;;;11.91;100.00;102261.34;10052090;29;20532;-69
2021/11/19 12:04:10;;;;;;;12.98;4.57;;;;;;;11.89;100.00;102263.53;10159861;28;20495;-68
2021/11/19 12:09:42;;;;;;;20.98;5.93;;;;;;;11.89;100.00;102260.81;10187629;28;20108;-69
2021/11/19 12:14:51;;;;;;;21.02;4.88;;;;;;;11.92;100.00;102268.44;10179539;28;20117;-69
2021/11/19 12:20:05;;;;;;;22.05;5.28;;;;;;;11.99;100.00;102255.22;10179019;28;20493;-68
2021/11/19 12:25:34;;;;;;;20.55;5.07;;;;;;;12.05;100.00;102263.41;10179202;28;20770;-68
2021/11/19 12:30:42;;;;;;;19.17;4.10;;;;;;;12.04;100.00;102242.56;10190133;28;20049;-69
2021/11/19 12:35:46;;;;;;;19.60;4.43;;;;;;;12.10;100.00;102252.38;10187256;28;20700;-68
2021/11/19 12:40:49;;;;;;;16.17;3.92;;;;;;;12.14;100.00;102259.72;10192294;28;20045;-69
2021/11/19 12:45:58;;;;;;;17.48;3.80;;;;;;;12.12;100.00;102255.66;10182800;28;20050;-69
2021/11/19 12:51:43;;;;;;;16.63;3.33;;;;;;;12.13;100.00;102257.25;10187564;28;20140;-69
2021/11/19 12:56:58;;;;;;;13.95;3.97;;;;;;;12.14;100.00;102242.47;10179288;28;20096;-69
2021/11/19 13:02:33;;;;;;;14.68;3.47;;;;;;;12.09;100.00;102242.50;10178922;28;20153;-68
2021/11/19 13:07:59;;;;;;;15.50;3.90;;;;;;;12.08;100.00;102249.09;10186184;28;20140;-69
2021/11/19 13:13:02;;;;;;;35.25;5.50;;;;;;;11.99;100.00;102252.47;10187719;28;20053;-69
2021/11/19 13:18:00;;;;;;;21.07;4.20;;;;;;;11.94;100.00;102254.44;10189610;28;20046;-69
2021/11/19 13:23:23;;;;;;;26.15;5.88;;;;;;;11.95;100.00;102240.47;10192043;28;20664;-69
2021/11/19 13:28:57;;;;;;;18.13;3.85;;;;;;;11.97;100.00;102243.75;10182169;28;20042;-68
2021/11/19 13:34:08;;;;;;;15.88;3.40;;;;;;;11.96;100.00;102258.53;10188537;28;20088;-69
2021/11/19 13:39:23;;;;;;;17.30;3.70;;;;;;;11.96;100.00;102242.09;10187627;28;20073;-69
2021/11/19 13:44:46;;;;;;;20.42;3.10;;;;;;;11.97;100.00;102260.19;10182717;28;20081;-69
2021/11/19 13:49:59;;;;;;;17.13;3.53;;;;;;;11.94;100.00;102251.72;10182337;28;20499;-69
2021/11/19 13:55:17;;;;;;;16.90;2.92;;;;;;;12.00;100.00;102256.84;10180657;28;20050;-69
2021/11/19 14:01:01;;;;;;;14.38;2.55;;;;;;;11.99;100.00;102257.13;10184974;28;20045;-69
2021/11/19 14:06:18;;;;;;;;;;;;;;;11.95;100.00;102251.44;10184760;28;20124;-69
2021/11/19 14:11:19;;;;;;;12.10;2.53;;;;;;;11.96;100.00;102253.06;10185831;28;19925;-70
2021/11/19 14:16:19;;;;;;;21.40;3.05;;;;;;;11.94;100.00;102248.97;10190768;28;20462;-69
2021/11/19 14:26:51;;;;;;;16.23;2.55;;;;;;;11.91;100.00;102250.38;10187408;28;20046;-69
2021/11/19 14:31:56;;;;;;;17.27;3.22;;;;;;;11.91;100.00;102258.59;10191345;28;20136;-68
2021/11/19 14:36:55;;;;;;;45.20;3.45;;;;;;;11.87;100.00;102254.78;10190812;28;20569;-69
2021/11/19 14:41:59;;;;;;;15.77;2.90;;;;;;;11.88;100.00;102250.97;10182622;28;20755;-68
2021/11/19 14:47:13;;;;;;;19.08;2.92;;;;;;;11.93;100.00;102261.06;10186357;28;20133;-68
2021/11/19 14:52:21;;;;;;;18.17;2.93;;;;;;;11.94;100.00;102243.50;10181394;28;20046;-69
2021/11/19 14:57:43;;;;;;;18.65;3.03;;;;;;;11.89;100.00;102252.59;10187402;28;20503;-69
2021/11/19 15:02:56;;;;;;;20.00;4.20;;;;;;;11.90;100.00;102256.94;10186952;28;20054;-68
2021/11/19 15:07:56;;;;;;;17.80;2.83;;;;;;;11.88;100.00;102256.44;10191500;28;20392;-69
2021/11/19 15:12:56;;;;;;;21.15;3.20;;;;;;;11.87;100.00;102260.28;10182062;28;20677;-69
2021/11/19 15:17:54;;;;;;;26.02;5.53;;;;;;;11.89;100.00;102258.06;10188932;28;20479;-69
2021/11/19 15:22:51;;;;;;;21.25;3.15;;;;;;;11.88;100.00;102253.69;10189651;28;20057;-68
2021/11/19 15:28:19;;;;;;;19.55;4.75;;;;;;;11.84;100.00;102255.34;10194227;28;20119;-68
2021/11/19 15:33:38;;;;;;;14.18;2.53;;;;;;;11.85;100.00;102251.47;10188665;28;20418;-68
2021/11/19 15:38:41;;;;;;;16.75;3.15;;;;;;;11.85;100.00;102254.22;10185515;28;20658;-68
2021/11/19 15:43:39;;;;;;;13.80;2.63;;;;;;;11.86;100.00;102264.09;10177867;28;20100;-68
2021/11/19 15:48:38;;;;;;;10.80;1.83;;;;;;;11.81;100.00;102255.91;10181608;28;20046;-68
2021/11/19 15:53:45;;;;;;;18.70;2.88;;;;;;;11.85;100.00;102251.47;10177488;28;20081;-68
2021/11/19 15:59:13;;;;;;;23.42;3.13;;;;;;;11.85;100.00;102253.41;10178579;28;20053;-70
2021/11/19 16:04:40;;;;;;;12.57;2.75;;;;;;;11.76;100.00;102253.22;10167247;28;20602;-70
2021/11/19 16:09:56;;;;;;;14.60;2.85;;;;;;;11.79;100.00;102258.13;10179837;28;20507;-70
2021/11/19 16:15:13;;;;;;;21.92;2.88;;;;;;;11.77;100.00;102265.81;10181450;28;20064;-68
2021/11/19 16:20:13;;;;;;;20.05;3.20;;;;;;;11.77;100.00;102266.63;10180418;28;20084;-70
2021/11/19 16:25:12;;;;;;;18.38;3.08;;;;;;;11.73;100.00;102264.75;10180752;28;20046;-70
2021/11/19 16:30:25;;;;;;;42.13;3.55;;;;;;;11.73;100.00;102254.63;10184292;28;20100;-70
2021/11/19 16:35:23;;;;;;;;;;;;;;;11.76;100.00;102258.69;10187502;28;20105;-70
2021/11/19 16:40:25;;;;;;;16.95;2.72;;;;;;;11.74;100.00;102256.25;10193850;28;19922;-69
2021/11/19 16:45:27;;;;;;;16.75;2.95;;;;;;;11.75;100.00;102257.06;10190193;28;20045;-69
2021/11/19 16:50:28;;;;;;;21.23;2.50;;;;;;;11.70;100.00;102268.09;10192198;28;20046;-69
2021/11/19 16:55:25;;;;;;;20.40;2.97;;;;;;;11.71;100.00;102265.03;10195505;28;20165;-70
2021/11/19 17:00:29;;;;;;;18.77;2.78;;;;;;;11.75;100.00;102268.03;10186982;28;20062;-70
2021/11/19 17:05:31;;;;;;;21.70;3.35;;;;;;;11.75;100.00;102262.56;10183079;28;20054;-67
2021/11/19 17:10:28;;;;;;;21.52;2.95;;;;;;;11.77;100.00;102249.38;10185587;28;20820;-67
2021/11/19 17:15:25;;;;;;;22.80;3.53;;;;;;;11.76;100.00;102258.69;10178806;28;20419;-69
2021/11/19 17:20:24;;;;;;;19.92;3.42;;;;;;;11.72;100.00;102257.63;10184462;28;20061;-69
2021/11/19 17:25:24;;;;;;;24.95;3.10;;;;;;;11.72;100.00;102263.09;10188691;28;20062;-70
2021/11/19 17:30:23;;;;;;;15.43;2.70;;;;;;;11.76;100.00;102283.34;10189063;28;20140;-70
2021/11/19 17:35:23;;;;;;;20.75;3.25;;;;;;;11.74;100.00;102271.88;10205879;28;20468;-70
2021/11/19 17:40:22;;;;;;;24.83;4.35;;;;;;;11.74;100.00;102266.38;10190925;28;20054;-70
2021/11/19 17:45:23;;;;;;;25.35;4.07;;;;;;;11.77;100.00;102265.81;10197435;28;20122;-71
2021/11/19 17:50:21;;;;;;;21.48;3.35;;;;;;;11.77;100.00;102282.28;10191041;28;20049;-69
2021/11/19 17:55:24;;;;;;;23.25;4.63;;;;;;;11.72;100.00;102274.91;10198498;28;20136;-70
2021/11/19 18:00:26;;;;;;;19.70;3.17;;;;;;;11.71;100.00;102283.41;10191088;28;20049;-70
2021/11/19 18:05:24;;;;;;;19.52;4.70;;;;;;;11.72;100.00;102274.06;10190594;28;20077;-69
2021/11/19 18:10:23;;;;;;;25.40;3.47;;;;;;;11.70;100.00;102274.38;10190782;28;20057;-70
2021/11/19 18:15:20;;;;;;;25.90;4.10;;;;;;;11.68;100.00;102284.81;10196408;28;20104;-70
2021/11/19 18:20:25;;;;;;;28.48;4.55;;;;;;;11.69;100.00;102296.56;10189586;28;20076;-70
2021/11/19 18:25:25;;;;;;;24.45;5.68;;;;;;;11.70;100.00;102287.28;10180472;28;20073;-69
2021/11/19 18:30:41;;;;;;;25.15;4.32;;;;;;;11.69;100.00;102296.56;10187440;28;20560;-68
2021/11/19 18:35:39;;;;;;;16.90;3.40;;;;;;;11.65;100.00;102296.34;10186435;28;20057;-70
2021/11/19 18:40:47;;;;;;;20.27;3.83;;;;;;;11.63;100.00;102292.22;10186007;28;20053;-69
2021/11/19 18:45:45;;;;;;;28.73;4.50;;;;;;;11.64;100.00;102293.88;10177915;28;20115;-71
2021/11/19 18:50:42;;;;;;;23.10;4.07;;;;;;;11.57;100.00;102308.72;10171965;28;20062;-67
2021/11/19 18:55:38;;;;;;;29.33;4.40;;;;;;;11.59;100.00;102298.28;10184133;28;20065;-70
2021/11/19 19:00:39;;;;;;;24.83;4.28;;;;;;;11.57;100.00;102297.75;10182421;28;20050;-69
2021/11/19 19:05:37;;;;;;;33.15;4.13;;;;;;;11.57;100.00;102299.69;10175975;28;20132;-70
2021/11/19 19:10:36;;;;;;;28.10;5.00;;;;;;;11.53;100.00;102310.41;10180625;28;20046;-69
2021/11/19 19:15:35;;;;;;;23.13;4.72;;;;;;;11.58;100.00;102323.25;10171363;28;20084;-69
2021/11/19 19:20:39;;;;;;;21.75;4.60;;;;;;;11.53;100.00;102310.41;10173172;28;20132;-70
2021/11/19 19:25:37;;;;;;;29.20;5.55;;;;;;;11.54;100.00;102306.56;10175735;28;20104;-69
2021/11/19 19:30:36;;;;;;;28.73;4.55;;;;;;;11.56;100.00;102306.28;10183257;28;20112;-68
2021/11/19 19:35:50;;;;;;;25.58;3.78;;;;;;;11.59;100.00;102314.72;10195884;28;20614;-68
2021/11/19 19:40:47;;;;;;;25.95;4.50;;;;;;;11.52;100.00;102311.50;10184334;28;20038;-69
2021/11/19 19:45:48;;;;;;;27.58;4.65;;;;;;;11.52;100.00;102310.69;10188112;28;20046;-68
2021/11/19 19:50:46;;;;;;;32.72;4.55;;;;;;;11.52;100.00;102314.22;10193651;28;20474;-68
2021/11/19 19:55:43;;;;;;;26.67;5.45;;;;;;;11.49;100.00;102325.78;10196369;28;20464;-70
2021/11/19 20:00:42;;;;;;;33.13;5.72;;;;;;;11.52;100.00;102324.38;10203646;28;20046;-69
2021/11/19 20:05:38;;;;;;;28.77;5.43;;;;;;;11.50;100.00;102321.91;10187849;28;20723;-68
2021/11/19 20:10:35;;;;;;;22.95;5.68;;;;;;;11.53;100.00;102320.53;10193125;28;20136;-68
2021/11/19 20:15:36;;;;;;;28.98;3.75;;;;;;;11.56;100.00;102329.00;10184786;28;20042;-69
2021/11/19 20:20:40;;;;;;;23.67;4.30;;;;;;;11.54;100.00;102333.94;10192105;28;20046;-67
2021/11/19 20:25:48;;;;;;;;;;;;;;;11.59;100.00;102320.22;10187121;28;20046;-69
2021/11/19 20:30:45;;;;;;;26.83;4.75;;;;;;;11.57;100.00;102343.50;10189630;28;19971;-68
2021/11/19 20:35:41;;;;;;;21.42;3.88;;;;;;;11.54;100.00;102352.31;10194363;28;20107;-69
2021/11/19 20:40:44;;;;;;;25.50;3.88;;;;;;;11.53;100.00;102353.41;10192151;28;20042;-69
2021/11/19 20:45:45;;;;;;;27.23;4.75;;;;;;;11.55;100.00;102362.16;10188538;28;20768;-69
2021/11/19 20:50:42;;;;;;;29.27;4.05;;;;;;;11.55;100.00;102354.75;10187685;28;20046;-70
2021/11/19 20:55:52;;;;;;;23.70;5.15;;;;;;;11.55;100.00;102368.44;10181389;28;20074;-70
2021/11/19 21:00:56;;;;;;;35.97;5.75;;;;;;;11.56;100.00;102361.06;10187736;28;20557;-70
2021/11/19 21:05:54;;;;;;;27.23;4.43;;;;;;;11.58;100.00;102345.97;10184262;28;20064;-70
2021/11/19 21:10:53;;;;;;;25.23;4.35;;;;;;;11.55;100.00;102341.03;10194156;28;20045;-70
2021/11/19 21:15:50;;;;;;;26.92;5.68;;;;;;;11.57;100.00;102344.31;10197568;28;20042;-70
2021/11/19 21:20:51;;;;;;;29.50;5.20;;;;;;;11.55;100.00;102346.53;10186724;28;20100;-70
2021/11/19 21:25:56;;;;;;;30.38;5.43;;;;;;;11.55;100.00;102367.63;10187441;28;20419;-70
2021/11/19 21:30:57;;;;;;;24.05;4.88;;;;;;;11.55;100.00;102362.97;10188656;28;20554;-70
2021/11/19 21:35:58;;;;;;;23.48;4.47;;;;;;;11.51;100.00;102372.88;10191512;28;20062;-70
2021/11/19 21:40:59;;;;;;;26.40;4.38;;;;;;;11.52;100.00;102369.03;10186230;28;20103;-70
2021/11/19 21:45:59;;;;;;;34.97;3.97;;;;;;;11.49;100.00;102366.03;10186267;28;20161;-69
2021/11/19 21:51:00;;;;;;;29.52;4.40;;;;;;;11.48;100.00;102367.94;10171453;28;20054;-69
2021/11/19 21:56:47;;;;;;;24.88;4.75;;;;;;;11.41;100.00;102374.84;10194863;28;20045;-71
2021/11/19 22:01:55;;;;;;;19.90;3.38;;;;;;;11.45;100.00;102374.00;10176798;28;20438;-71
2021/11/19 22:06:54;;;;;;;31.05;4.68;;;;;;;11.43;100.00;102376.19;10173303;28;20065;-73
2021/11/19 22:11:53;;;;;;;28.55;4.18;;;;;;;11.40;100.00;102387.72;10177839;28;20065;-71
2021/11/19 22:16:50;;;;;;;29.48;5.88;;;;;;;11.39;100.00;102397.03;10178687;28;20115;-70
2021/11/19 22:21:56;;;;;;;30.52;4.53;;;;;;;11.34;100.00;102394.31;10179640;28;20100;-71
2021/11/19 22:26:55;;;;;;;26.23;4.60;;;;;;;11.37;100.00;102394.59;10187825;28;20052;-71
2021/11/19 22:31:58;;;;;;;34.08;5.13;;;;;;;11.39;100.00;102397.03;10186678;28;20045;-70
2021/11/19 22:36:58;;;;;;;26.75;4.20;;;;;;;11.38;100.00;102389.94;10187726;28;20058;-70
2021/11/19 22:41:58;;;;;;;23.73;4.25;;;;;;;11.33;100.00;102381.75;10200303;28;20476;-70
2021/11/19 22:46:56;;;;;;;23.65;4.60;;;;;;;11.26;100.00;102381.25;10195365;28;20049;-71
2021/11/19 22:51:53;;;;;;;34.15;7.28;;;;;;;11.22;100.00;102391.09;10183988;28;20056;-69